sensor_id;sensor_type;location;lat;lon;timestamp;temperature;humidity
51327;DHT22;37412;52.836;6.362;2023-08-12T00:00:11;20.00;99.90
51327;DHT22;37412;52.836;6.362;2023-08-12T00:02:57;19.90;99.90
51327;DHT22;37412;52.836;6.362;2023-08-12T00:05:45;19.90;99.90
51327;DHT22;37412;52.836;6.362;2023-08-12T00:08:31;19.90;99.90
51327;DHT22;37412;52.836;6.362;2023-08-12T00:11:17;19.80;99.90
51327;DHT22;37412;52.836;6.362;2023-08-12T00:14:03;19.80;99.90
51327;DHT22;37412;52.836;6.362;2023-08-12T00:16:50;19.80;99.90
51327;DHT22;37412;52.836;6.362;2023-08-12T00:19:36;19.90;99.90
51327;DHT22;37412;52.836;6.362;2023-08-12T00:22:22;19.80;99.90
51327;DHT22;37412;52.836;6.362;2023-08-12T00:25:09;19.70;99.90
51327;DHT22;37412;52.836;6.362;2023-08-12T00:27:55;19.70;99.90
51327;DHT22;37412;52.836;6.362;2023-08-12T00:30:40;19.80;99.90
51327;DHT22;37412;52.836;6.362;2023-08-12T00:33:26;19.70;99.90
51327;DHT22;37412;52.836;6.362;2023-08-12T00:36:12;19.70;99.90
51327;DHT22;37412;52.836;6.362;2023-08-12T00:38:58;19.70;99.90
51327;DHT22;37412;52.836;6.362;2023-08-12T00:41:44;19.70;99.90
51327;DHT22;37412;52.836;6.362;2023-08-12T00:44:30;19.70;99.90
51327;DHT22;37412;52.836;6.362;2023-08-12T00:47:16;19.70;99.90
51327;DHT22;37412;52.836;6.362;2023-08-12T00:50:03;19.70;99.90
51327;DHT22;37412;52.836;6.362;2023-08-12T00:52:49;19.70;99.90
51327;DHT22;37412;52.836;6.362;2023-08-12T00:55:36;19.60;99.90
51327;DHT22;37412;52.836;6.362;2023-08-12T00:58:22;19.60;99.90
51327;DHT22;37412;52.836;6.362;2023-08-12T01:01:08;19.60;99.90
51327;DHT22;37412;52.836;6.362;2023-08-12T01:03:54;19.60;99.90
51327;DHT22;37412;52.836;6.362;2023-08-12T01:06:40;19.60;99.90
51327;DHT22;37412;52.836;6.362;2023-08-12T01:09:26;19.50;99.90
51327;DHT22;37412;52.836;6.362;2023-08-12T01:12:32;19.60;99.90
51327;DHT22;37412;52.836;6.362;2023-08-12T01:15:23;19.50;99.90
51327;DHT22;37412;52.836;6.362;2023-08-12T01:18:11;19.70;99.90
51327;DHT22;37412;52.836;6.362;2023-08-12T01:20:59;19.50;99.90
51327;DHT22;37412;52.836;6.362;2023-08-12T01:23:46;19.50;99.90
51327;DHT22;37412;52.836;6.362;2023-08-12T01:26:32;19.50;99.90
51327;DHT22;37412;52.836;6.362;2023-08-12T01:29:19;19.40;99.90
51327;DHT22;37412;52.836;6.362;2023-08-12T01:32:19;19.40;99.90
51327;DHT22;37412;52.836;6.362;2023-08-12T01:35:30;19.40;99.90
51327;DHT22;37412;52.836;6.362;2023-08-12T01:38:18;19.40;99.90
51327;DHT22;37412;52.836;6.362;2023-08-12T01:41:07;19.40;99.90
51327;DHT22;37412;52.836;6.362;2023-08-12T01:43:55;19.40;99.90
51327;DHT22;37412;52.836;6.362;2023-08-12T01:46:43;19.30;99.90
51327;DHT22;37412;52.836;6.362;2023-08-12T01:49:29;19.30;99.90
51327;DHT22;37412;52.836;6.362;2023-08-12T01:52:15;19.30;99.90
51327;DHT22;37412;52.836;6.362;2023-08-12T01:55:01;19.30;99.90
51327;DHT22;37412;52.836;6.362;2023-08-12T01:57:47;19.30;99.90
51327;DHT22;37412;52.836;6.362;2023-08-12T02:00:33;19.30;99.90
51327;DHT22;37412;52.836;6.362;2023-08-12T02:03:19;19.20;99.90
51327;DHT22;37412;52.836;6.362;2023-08-12T02:06:05;19.20;99.90
51327;DHT22;37412;52.836;6.362;2023-08-12T02:08:51;19.20;99.90
51327;DHT22;37412;52.836;6.362;2023-08-12T02:11:37;19.20;99.90
51327;DHT22;37412;52.836;6.362;2023-08-12T02:14:23;19.20;99.90
51327;DHT22;37412;52.836;6.362;2023-08-12T02:17:09;19.20;99.90
51327;DHT22;37412;52.836;6.362;2023-08-12T02:19:55;19.30;99.90
51327;DHT22;37412;52.836;6.362;2023-08-12T02:22:41;19.30;99.90
51327;DHT22;37412;52.836;6.362;2023-08-12T02:25:26;19.30;99.90
51327;DHT22;37412;52.836;6.362;2023-08-12T02:28:13;19.30;99.90
51327;DHT22;37412;52.836;6.362;2023-08-12T02:30:58;19.30;99.90
51327;DHT22;37412;52.836;6.362;2023-08-12T02:33:44;19.30;99.90
51327;DHT22;37412;52.836;6.362;2023-08-12T02:36:30;19.20;99.90
51327;DHT22;37412;52.836;6.362;2023-08-12T02:39:16;19.20;99.90
51327;DHT22;37412;52.836;6.362;2023-08-12T02:42:02;19.10;99.90
51327;DHT22;37412;52.836;6.362;2023-08-12T02:44:48;19.20;99.90
51327;DHT22;37412;52.836;6.362;2023-08-12T02:47:34;19.10;99.90
51327;DHT22;37412;52.836;6.362;2023-08-12T02:50:20;19.10;99.90
51327;DHT22;37412;52.836;6.362;2023-08-12T02:53:07;19.10;99.90
51327;DHT22;37412;52.836;6.362;2023-08-12T02:55:53;19.10;99.90
51327;DHT22;37412;52.836;6.362;2023-08-12T02:58:39;19.20;99.90
51327;DHT22;37412;52.836;6.362;2023-08-12T03:01:25;19.20;99.90
51327;DHT22;37412;52.836;6.362;2023-08-12T03:04:12;19.30;99.90
51327;DHT22;37412;52.836;6.362;2023-08-12T03:06:58;19.20;99.90
51327;DHT22;37412;52.836;6.362;2023-08-12T03:09:44;19.20;99.90
51327;DHT22;37412;52.836;6.362;2023-08-12T03:12:30;19.30;99.90
51327;DHT22;37412;52.836;6.362;2023-08-12T03:15:16;19.30;99.90
51327;DHT22;37412;52.836;6.362;2023-08-12T03:18:02;19.30;99.90
51327;DHT22;37412;52.836;6.362;2023-08-12T03:20:48;19.30;99.90
51327;DHT22;37412;52.836;6.362;2023-08-12T03:23:35;19.20;99.90
51327;DHT22;37412;52.836;6.362;2023-08-12T03:26:21;19.20;99.90
51327;DHT22;37412;52.836;6.362;2023-08-12T03:29:07;19.30;99.90
51327;DHT22;37412;52.836;6.362;2023-08-12T03:31:53;19.30;99.90
51327;DHT22;37412;52.836;6.362;2023-08-12T03:34:39;19.30;99.90
51327;DHT22;37412;52.836;6.362;2023-08-12T03:37:26;19.30;99.90
51327;DHT22;37412;52.836;6.362;2023-08-12T03:40:12;19.40;99.90
51327;DHT22;37412;52.836;6.362;2023-08-12T03:42:57;19.40;99.90
51327;DHT22;37412;52.836;6.362;2023-08-12T03:45:44;19.40;99.90
51327;DHT22;37412;52.836;6.362;2023-08-12T03:48:30;19.40;99.90
51327;DHT22;37412;52.836;6.362;2023-08-12T03:51:15;19.40;99.90
51327;DHT22;37412;52.836;6.362;2023-08-12T03:54:01;19.40;99.90
51327;DHT22;37412;52.836;6.362;2023-08-12T03:56:47;19.30;99.90
51327;DHT22;37412;52.836;6.362;2023-08-12T03:59:33;19.50;99.90
51327;DHT22;37412;52.836;6.362;2023-08-12T04:02:19;19.40;99.90
51327;DHT22;37412;52.836;6.362;2023-08-12T04:05:05;19.40;99.90
51327;DHT22;37412;52.836;6.362;2023-08-12T04:07:51;19.40;99.90
51327;DHT22;37412;52.836;6.362;2023-08-12T04:10:37;19.50;99.90
51327;DHT22;37412;52.836;6.362;2023-08-12T04:13:23;19.50;99.90
51327;DHT22;37412;52.836;6.362;2023-08-12T04:16:09;19.50;99.90
51327;DHT22;37412;52.836;6.362;2023-08-12T04:18:55;19.50;99.90
51327;DHT22;37412;52.836;6.362;2023-08-12T04:21:42;19.40;99.90
51327;DHT22;37412;52.836;6.362;2023-08-12T04:24:31;19.40;99.90
51327;DHT22;37412;52.836;6.362;2023-08-12T04:27:18;19.50;99.90
51327;DHT22;37412;52.836;6.362;2023-08-12T04:30:04;19.50;99.90
51327;DHT22;37412;52.836;6.362;2023-08-12T04:32:50;19.50;99.90
51327;DHT22;37412;52.836;6.362;2023-08-12T04:35:36;19.50;99.90
51327;DHT22;37412;52.836;6.362;2023-08-12T04:38:22;19.50;99.90
51327;DHT22;37412;52.836;6.362;2023-08-12T04:41:08;19.50;99.90
51327;DHT22;37412;52.836;6.362;2023-08-12T04:43:54;19.50;99.90
51327;DHT22;37412;52.836;6.362;2023-08-12T04:46:40;19.50;99.90
51327;DHT22;37412;52.836;6.362;2023-08-12T04:49:26;19.50;99.90
51327;DHT22;37412;52.836;6.362;2023-08-12T04:52:12;19.50;99.90
51327;DHT22;37412;52.836;6.362;2023-08-12T04:54:58;19.50;99.90
51327;DHT22;37412;52.836;6.362;2023-08-12T04:57:44;19.50;99.90
51327;DHT22;37412;52.836;6.362;2023-08-12T05:00:30;19.50;99.90
51327;DHT22;37412;52.836;6.362;2023-08-12T05:03:17;19.50;99.90
51327;DHT22;37412;52.836;6.362;2023-08-12T05:06:03;19.50;99.90
51327;DHT22;37412;52.836;6.362;2023-08-12T05:08:48;19.50;99.90
51327;DHT22;37412;52.836;6.362;2023-08-12T05:11:34;19.70;99.90
51327;DHT22;37412;52.836;6.362;2023-08-12T05:14:20;19.50;99.90
51327;DHT22;37412;52.836;6.362;2023-08-12T05:17:06;19.60;99.90
51327;DHT22;37412;52.836;6.362;2023-08-12T05:19:52;19.60;99.90
51327;DHT22;37412;52.836;6.362;2023-08-12T05:22:38;19.60;99.90
51327;DHT22;37412;52.836;6.362;2023-08-12T05:25:24;19.70;99.90
51327;DHT22;37412;52.836;6.362;2023-08-12T05:28:10;19.70;99.90
51327;DHT22;37412;52.836;6.362;2023-08-12T05:30:56;19.70;99.90
51327;DHT22;37412;52.836;6.362;2023-08-12T05:33:42;19.80;99.90
51327;DHT22;37412;52.836;6.362;2023-08-12T05:36:28;19.90;99.90
51327;DHT22;37412;52.836;6.362;2023-08-12T05:39:14;19.90;99.90
51327;DHT22;37412;52.836;6.362;2023-08-12T05:42:01;20.00;99.90
51327;DHT22;37412;52.836;6.362;2023-08-12T05:44:47;20.10;99.90
51327;DHT22;37412;52.836;6.362;2023-08-12T05:47:33;20.20;99.90
51327;DHT22;37412;52.836;6.362;2023-08-12T05:50:19;20.30;99.90
51327;DHT22;37412;52.836;6.362;2023-08-12T05:53:05;20.30;99.90
51327;DHT22;37412;52.836;6.362;2023-08-12T05:55:51;20.30;99.90
51327;DHT22;37412;52.836;6.362;2023-08-12T05:58:36;20.30;99.90
51327;DHT22;37412;52.836;6.362;2023-08-12T06:01:22;20.40;99.90
51327;DHT22;37412;52.836;6.362;2023-08-12T06:04:08;20.40;99.90
51327;DHT22;37412;52.836;6.362;2023-08-12T06:06:54;20.50;99.90
51327;DHT22;37412;52.836;6.362;2023-08-12T06:09:40;20.40;99.90
51327;DHT22;37412;52.836;6.362;2023-08-12T06:12:26;20.40;99.90
51327;DHT22;37412;52.836;6.362;2023-08-12T06:15:12;20.40;99.90
51327;DHT22;37412;52.836;6.362;2023-08-12T06:17:58;20.40;99.90
51327;DHT22;37412;52.836;6.362;2023-08-12T06:20:44;20.40;99.90
51327;DHT22;37412;52.836;6.362;2023-08-12T06:23:33;20.40;99.90
51327;DHT22;37412;52.836;6.362;2023-08-12T06:26:19;20.50;99.90
51327;DHT22;37412;52.836;6.362;2023-08-12T06:29:05;20.80;99.90
51327;DHT22;37412;52.836;6.362;2023-08-12T06:31:52;20.40;99.90
51327;DHT22;37412;52.836;6.362;2023-08-12T06:34:38;20.30;99.90
51327;DHT22;37412;52.836;6.362;2023-08-12T06:37:24;20.40;99.90
51327;DHT22;37412;52.836;6.362;2023-08-12T06:40:10;20.40;99.90
51327;DHT22;37412;52.836;6.362;2023-08-12T06:42:56;20.60;99.90
51327;DHT22;37412;52.836;6.362;2023-08-12T06:45:42;20.40;99.90
51327;DHT22;37412;52.836;6.362;2023-08-12T06:48:28;20.40;99.90
51327;DHT22;37412;52.836;6.362;2023-08-12T06:51:14;20.50;99.90
51327;DHT22;37412;52.836;6.362;2023-08-12T06:54:00;20.40;99.90
51327;DHT22;37412;52.836;6.362;2023-08-12T06:56:47;20.40;99.90
51327;DHT22;37412;52.836;6.362;2023-08-12T06:59:32;20.40;99.90
51327;DHT22;37412;52.836;6.362;2023-08-12T07:02:18;20.40;99.90
51327;DHT22;37412;52.836;6.362;2023-08-12T07:05:05;20.40;99.90
51327;DHT22;37412;52.836;6.362;2023-08-12T07:07:50;20.40;99.90
51327;DHT22;37412;52.836;6.362;2023-08-12T07:10:40;20.50;99.90
51327;DHT22;37412;52.836;6.362;2023-08-12T07:13:26;20.50;99.90
51327;DHT22;37412;52.836;6.362;2023-08-12T07:16:12;20.50;99.90
51327;DHT22;37412;52.836;6.362;2023-08-12T07:18:58;20.60;99.90
51327;DHT22;37412;52.836;6.362;2023-08-12T07:21:44;20.60;99.90
51327;DHT22;37412;52.836;6.362;2023-08-12T07:24:30;20.60;99.90
51327;DHT22;37412;52.836;6.362;2023-08-12T07:27:16;20.60;99.90
51327;DHT22;37412;52.836;6.362;2023-08-12T07:30:02;20.70;99.90
51327;DHT22;37412;52.836;6.362;2023-08-12T07:32:48;20.70;99.90
51327;DHT22;37412;52.836;6.362;2023-08-12T07:35:34;20.70;99.90
51327;DHT22;37412;52.836;6.362;2023-08-12T07:38:20;20.70;99.90
51327;DHT22;37412;52.836;6.362;2023-08-12T07:41:06;20.70;99.90
51327;DHT22;37412;52.836;6.362;2023-08-12T07:43:52;20.70;99.90
51327;DHT22;37412;52.836;6.362;2023-08-12T07:46:38;20.70;99.90
51327;DHT22;37412;52.836;6.362;2023-08-12T07:49:24;20.70;99.90
51327;DHT22;37412;52.836;6.362;2023-08-12T07:52:11;20.70;99.90
51327;DHT22;37412;52.836;6.362;2023-08-12T07:54:57;20.70;99.90
51327;DHT22;37412;52.836;6.362;2023-08-12T07:57:44;20.60;99.90
51327;DHT22;37412;52.836;6.362;2023-08-12T08:00:30;20.70;99.90
51327;DHT22;37412;52.836;6.362;2023-08-12T08:03:15;20.70;99.90
51327;DHT22;37412;52.836;6.362;2023-08-12T08:06:01;20.60;99.90
51327;DHT22;37412;52.836;6.362;2023-08-12T08:08:47;20.60;99.90
51327;DHT22;37412;52.836;6.362;2023-08-12T08:11:33;20.60;99.90
51327;DHT22;37412;52.836;6.362;2023-08-12T08:14:20;20.60;99.90
51327;DHT22;37412;52.836;6.362;2023-08-12T08:17:06;20.60;99.90
51327;DHT22;37412;52.836;6.362;2023-08-12T08:19:52;20.50;99.90
51327;DHT22;37412;52.836;6.362;2023-08-12T08:22:38;20.40;99.90
51327;DHT22;37412;52.836;6.362;2023-08-12T08:25:25;20.50;99.90
51327;DHT22;37412;52.836;6.362;2023-08-12T08:28:11;20.40;99.90
51327;DHT22;37412;52.836;6.362;2023-08-12T08:30:57;20.40;99.90
51327;DHT22;37412;52.836;6.362;2023-08-12T08:33:43;20.40;99.90
51327;DHT22;37412;52.836;6.362;2023-08-12T08:36:29;20.70;99.90
51327;DHT22;37412;52.836;6.362;2023-08-12T08:39:15;20.30;99.90
51327;DHT22;37412;52.836;6.362;2023-08-12T08:42:05;20.30;99.90
51327;DHT22;37412;52.836;6.362;2023-08-12T08:44:52;20.20;99.90
51327;DHT22;37412;52.836;6.362;2023-08-12T08:47:41;20.20;99.90
51327;DHT22;37412;52.836;6.362;2023-08-12T08:50:31;20.10;99.90
51327;DHT22;37412;52.836;6.362;2023-08-12T08:53:18;20.20;99.90
51327;DHT22;37412;52.836;6.362;2023-08-12T08:56:08;20.20;99.90
51327;DHT22;37412;52.836;6.362;2023-08-12T08:59:17;20.20;99.90
51327;DHT22;37412;52.836;6.362;2023-08-12T09:02:03;20.20;99.90
51327;DHT22;37412;52.836;6.362;2023-08-12T09:04:50;20.20;99.90
51327;DHT22;37412;52.836;6.362;2023-08-12T09:07:37;20.20;99.90
51327;DHT22;37412;52.836;6.362;2023-08-12T09:10:25;20.20;99.90
51327;DHT22;37412;52.836;6.362;2023-08-12T09:13:12;20.20;99.90
51327;DHT22;37412;52.836;6.362;2023-08-12T09:15:59;20.20;99.90
51327;DHT22;37412;52.836;6.362;2023-08-12T09:18:45;20.20;99.90
51327;DHT22;37412;52.836;6.362;2023-08-12T09:21:31;20.20;99.90
51327;DHT22;37412;52.836;6.362;2023-08-12T09:24:17;20.20;99.90
51327;DHT22;37412;52.836;6.362;2023-08-12T09:27:03;20.10;99.90
51327;DHT22;37412;52.836;6.362;2023-08-12T09:29:51;20.10;99.90
51327;DHT22;37412;52.836;6.362;2023-08-12T09:32:40;20.10;99.90
51327;DHT22;37412;52.836;6.362;2023-08-12T09:35:38;20.10;99.90
51327;DHT22;37412;52.836;6.362;2023-08-12T09:38:25;20.10;99.90
51327;DHT22;37412;52.836;6.362;2023-08-12T09:41:11;20.10;99.90
51327;DHT22;37412;52.836;6.362;2023-08-12T09:43:58;20.30;99.90
51327;DHT22;37412;52.836;6.362;2023-08-12T09:46:44;20.00;99.90
51327;DHT22;37412;52.836;6.362;2023-08-12T09:49:30;20.10;99.90
51327;DHT22;37412;52.836;6.362;2023-08-12T09:52:16;20.10;99.90
51327;DHT22;37412;52.836;6.362;2023-08-12T09:55:04;20.00;99.90
51327;DHT22;37412;52.836;6.362;2023-08-12T09:57:52;20.10;99.90
51327;DHT22;37412;52.836;6.362;2023-08-12T10:00:38;20.00;99.90
51327;DHT22;37412;52.836;6.362;2023-08-12T10:03:28;20.00;99.90
51327;DHT22;37412;52.836;6.362;2023-08-12T10:06:15;20.00;99.90
51327;DHT22;37412;52.836;6.362;2023-08-12T10:09:02;20.10;99.90
51327;DHT22;37412;52.836;6.362;2023-08-12T10:11:49;20.10;99.90
51327;DHT22;37412;52.836;6.362;2023-08-12T10:14:37;20.00;99.90
51327;DHT22;37412;52.836;6.362;2023-08-12T10:17:24;20.10;99.90
51327;DHT22;37412;52.836;6.362;2023-08-12T10:20:16;20.10;99.90
51327;DHT22;37412;52.836;6.362;2023-08-12T10:23:05;20.10;99.90
51327;DHT22;37412;52.836;6.362;2023-08-12T10:25:54;20.10;99.90
51327;DHT22;37412;52.836;6.362;2023-08-12T10:28:40;20.10;99.90
51327;DHT22;37412;52.836;6.362;2023-08-12T10:31:27;20.00;99.90
51327;DHT22;37412;52.836;6.362;2023-08-12T10:34:24;20.00;99.90
51327;DHT22;37412;52.836;6.362;2023-08-12T10:37:10;20.00;99.90
51327;DHT22;37412;52.836;6.362;2023-08-12T10:39:57;20.10;99.90
51327;DHT22;37412;52.836;6.362;2023-08-12T10:42:47;20.00;99.90
51327;DHT22;37412;52.836;6.362;2023-08-12T10:45:52;20.00;99.90
51327;DHT22;37412;52.836;6.362;2023-08-12T10:48:56;20.00;99.90
51327;DHT22;37412;52.836;6.362;2023-08-12T10:51:49;19.90;99.90
51327;DHT22;37412;52.836;6.362;2023-08-12T10:54:35;20.00;99.90
51327;DHT22;37412;52.836;6.362;2023-08-12T10:57:36;20.10;99.90
51327;DHT22;37412;52.836;6.362;2023-08-12T11:00:27;20.20;99.90
51327;DHT22;37412;52.836;6.362;2023-08-12T11:03:14;20.40;99.90
51327;DHT22;37412;52.836;6.362;2023-08-12T11:06:00;20.70;99.90
51327;DHT22;37412;52.836;6.362;2023-08-12T11:08:56;20.60;99.90
51327;DHT22;37412;52.836;6.362;2023-08-12T11:11:42;20.70;99.90
51327;DHT22;37412;52.836;6.362;2023-08-12T11:14:28;20.70;99.90
51327;DHT22;37412;52.836;6.362;2023-08-12T11:17:14;20.60;99.90
51327;DHT22;37412;52.836;6.362;2023-08-12T11:20:02;20.70;99.90
51327;DHT22;37412;52.836;6.362;2023-08-12T11:22:50;20.80;99.90
51327;DHT22;37412;52.836;6.362;2023-08-12T11:25:42;20.90;99.90
51327;DHT22;37412;52.836;6.362;2023-08-12T11:28:28;20.90;99.90
51327;DHT22;37412;52.836;6.362;2023-08-12T11:31:14;21.00;99.90
51327;DHT22;37412;52.836;6.362;2023-08-12T11:34:00;21.00;99.90
51327;DHT22;37412;52.836;6.362;2023-08-12T11:36:46;21.00;99.90
51327;DHT22;37412;52.836;6.362;2023-08-12T11:39:32;21.10;99.90
51327;DHT22;37412;52.836;6.362;2023-08-12T11:42:20;21.10;99.90
51327;DHT22;37412;52.836;6.362;2023-08-12T11:45:06;20.90;99.90
51327;DHT22;37412;52.836;6.362;2023-08-12T11:47:53;20.80;99.90
51327;DHT22;37412;52.836;6.362;2023-08-12T11:50:39;20.60;99.90
51327;DHT22;37412;52.836;6.362;2023-08-12T11:53:25;20.40;99.90
51327;DHT22;37412;52.836;6.362;2023-08-12T11:56:12;20.30;99.90
51327;DHT22;37412;52.836;6.362;2023-08-12T11:58:58;20.40;99.90
51327;DHT22;37412;52.836;6.362;2023-08-12T12:01:48;20.40;99.90
51327;DHT22;37412;52.836;6.362;2023-08-12T12:04:34;20.50;99.90
51327;DHT22;37412;52.836;6.362;2023-08-12T12:07:25;20.40;99.90
51327;DHT22;37412;52.836;6.362;2023-08-12T12:10:25;20.50;99.90
51327;DHT22;37412;52.836;6.362;2023-08-12T12:13:11;20.50;99.90
51327;DHT22;37412;52.836;6.362;2023-08-12T12:15:58;20.60;99.90
51327;DHT22;37412;52.836;6.362;2023-08-12T12:18:44;20.70;99.90
51327;DHT22;37412;52.836;6.362;2023-08-12T12:21:30;20.70;99.90
51327;DHT22;37412;52.836;6.362;2023-08-12T12:24:17;20.70;99.90
51327;DHT22;37412;52.836;6.362;2023-08-12T12:27:03;20.80;99.90
51327;DHT22;37412;52.836;6.362;2023-08-12T12:29:50;20.80;99.90
51327;DHT22;37412;52.836;6.362;2023-08-12T12:32:36;20.80;99.90
51327;DHT22;37412;52.836;6.362;2023-08-12T12:35:22;20.80;99.90
51327;DHT22;37412;52.836;6.362;2023-08-12T12:38:08;20.90;99.90
51327;DHT22;37412;52.836;6.362;2023-08-12T12:40:54;21.10;99.90
51327;DHT22;37412;52.836;6.362;2023-08-12T12:43:40;21.40;99.90
51327;DHT22;37412;52.836;6.362;2023-08-12T12:46:26;21.60;99.90
51327;DHT22;37412;52.836;6.362;2023-08-12T12:49:12;22.00;99.90
51327;DHT22;37412;52.836;6.362;2023-08-12T12:51:58;22.30;99.90
51327;DHT22;37412;52.836;6.362;2023-08-12T12:54:44;22.60;99.90
51327;DHT22;37412;52.836;6.362;2023-08-12T12:57:30;22.70;99.90
51327;DHT22;37412;52.836;6.362;2023-08-12T13:00:15;22.70;99.90
51327;DHT22;37412;52.836;6.362;2023-08-12T13:03:02;22.80;99.90
51327;DHT22;37412;52.836;6.362;2023-08-12T13:05:49;23.00;99.90
51327;DHT22;37412;52.836;6.362;2023-08-12T13:08:35;23.20;99.90
51327;DHT22;37412;52.836;6.362;2023-08-12T13:11:21;23.30;99.90
51327;DHT22;37412;52.836;6.362;2023-08-12T13:14:07;23.30;99.90
51327;DHT22;37412;52.836;6.362;2023-08-12T13:16:52;23.50;99.90
51327;DHT22;37412;52.836;6.362;2023-08-12T13:19:38;23.70;99.90
51327;DHT22;37412;52.836;6.362;2023-08-12T13:22:24;23.60;99.90
51327;DHT22;37412;52.836;6.362;2023-08-12T13:25:10;23.80;99.90
51327;DHT22;37412;52.836;6.362;2023-08-12T13:27:57;23.90;99.90
51327;DHT22;37412;52.836;6.362;2023-08-12T13:30:44;24.00;99.90
51327;DHT22;37412;52.836;6.362;2023-08-12T13:33:30;24.00;99.90
51327;DHT22;37412;52.836;6.362;2023-08-12T13:36:17;24.10;99.90
51327;DHT22;37412;52.836;6.362;2023-08-12T13:39:03;24.30;99.90
51327;DHT22;37412;52.836;6.362;2023-08-12T13:41:49;24.30;99.90
51327;DHT22;37412;52.836;6.362;2023-08-12T13:44:35;24.40;99.90
51327;DHT22;37412;52.836;6.362;2023-08-12T13:47:21;24.50;99.90
51327;DHT22;37412;52.836;6.362;2023-08-12T13:50:07;24.50;99.90
51327;DHT22;37412;52.836;6.362;2023-08-12T13:52:53;24.60;99.90
51327;DHT22;37412;52.836;6.362;2023-08-12T13:55:39;24.80;99.90
51327;DHT22;37412;52.836;6.362;2023-08-12T13:58:25;24.90;99.90
51327;DHT22;37412;52.836;6.362;2023-08-12T14:01:14;25.20;99.90
51327;DHT22;37412;52.836;6.362;2023-08-12T14:04:00;25.00;99.90
51327;DHT22;37412;52.836;6.362;2023-08-12T14:06:46;25.10;99.90
51327;DHT22;37412;52.836;6.362;2023-08-12T14:09:33;25.10;99.90
51327;DHT22;37412;52.836;6.362;2023-08-12T14:12:19;25.10;99.90
51327;DHT22;37412;52.836;6.362;2023-08-12T14:15:05;24.90;99.90
51327;DHT22;37412;52.836;6.362;2023-08-12T14:17:51;24.70;99.90
51327;DHT22;37412;52.836;6.362;2023-08-12T14:20:37;24.60;99.90
51327;DHT22;37412;52.836;6.362;2023-08-12T14:23:23;24.60;99.90
51327;DHT22;37412;52.836;6.362;2023-08-12T14:26:12;24.70;99.90
51327;DHT22;37412;52.836;6.362;2023-08-12T14:28:58;24.70;99.90
51327;DHT22;37412;52.836;6.362;2023-08-12T14:31:44;24.70;99.90
51327;DHT22;37412;52.836;6.362;2023-08-12T14:34:30;24.70;99.90
51327;DHT22;37412;52.836;6.362;2023-08-12T14:37:16;24.70;99.90
51327;DHT22;37412;52.836;6.362;2023-08-12T14:40:02;24.80;99.90
51327;DHT22;37412;52.836;6.362;2023-08-12T14:42:48;24.80;99.90
51327;DHT22;37412;52.836;6.362;2023-08-12T14:45:34;24.50;99.90
51327;DHT22;37412;52.836;6.362;2023-08-12T14:48:20;24.10;99.90
51327;DHT22;37412;52.836;6.362;2023-08-12T14:51:06;23.80;99.90
51327;DHT22;37412;52.836;6.362;2023-08-12T14:53:52;23.50;99.90
51327;DHT22;37412;52.836;6.362;2023-08-12T14:56:38;23.60;99.90
51327;DHT22;37412;52.836;6.362;2023-08-12T14:59:24;23.70;99.90
51327;DHT22;37412;52.836;6.362;2023-08-12T15:02:10;23.80;99.90
51327;DHT22;37412;52.836;6.362;2023-08-12T15:04:56;23.90;99.90
51327;DHT22;37412;52.836;6.362;2023-08-12T15:07:42;24.00;99.90
51327;DHT22;37412;52.836;6.362;2023-08-12T15:10:28;23.90;99.90
51327;DHT22;37412;52.836;6.362;2023-08-12T15:13:15;23.80;99.90
51327;DHT22;37412;52.836;6.362;2023-08-12T15:16:01;23.50;99.90
51327;DHT22;37412;52.836;6.362;2023-08-12T15:18:46;23.60;99.90
51327;DHT22;37412;52.836;6.362;2023-08-12T15:21:32;23.60;99.90
51327;DHT22;37412;52.836;6.362;2023-08-12T15:24:18;23.60;99.90
51327;DHT22;37412;52.836;6.362;2023-08-12T15:27:04;23.70;99.90
51327;DHT22;37412;52.836;6.362;2023-08-12T15:29:50;23.60;99.90
51327;DHT22;37412;52.836;6.362;2023-08-12T15:32:36;23.50;99.90
51327;DHT22;37412;52.836;6.362;2023-08-12T15:35:22;23.40;99.90
51327;DHT22;37412;52.836;6.362;2023-08-12T15:38:08;22.80;99.90
51327;DHT22;37412;52.836;6.362;2023-08-12T15:40:54;23.30;99.90
51327;DHT22;37412;52.836;6.362;2023-08-12T15:43:41;23.30;99.90
51327;DHT22;37412;52.836;6.362;2023-08-12T15:46:26;23.20;99.90
51327;DHT22;37412;52.836;6.362;2023-08-12T15:49:12;23.10;99.90
51327;DHT22;37412;52.836;6.362;2023-08-12T15:51:59;23.00;99.90
51327;DHT22;37412;52.836;6.362;2023-08-12T15:54:44;23.00;99.90
51327;DHT22;37412;52.836;6.362;2023-08-12T15:57:33;22.90;99.90
51327;DHT22;37412;52.836;6.362;2023-08-12T16:00:20;22.90;99.90
51327;DHT22;37412;52.836;6.362;2023-08-12T16:03:09;22.90;99.90
51327;DHT22;37412;52.836;6.362;2023-08-12T16:05:57;22.90;99.90
51327;DHT22;37412;52.836;6.362;2023-08-12T16:08:44;22.80;99.90
51327;DHT22;37412;52.836;6.362;2023-08-12T16:11:30;22.90;99.90
51327;DHT22;37412;52.836;6.362;2023-08-12T16:14:16;22.60;99.90
51327;DHT22;37412;52.836;6.362;2023-08-12T16:17:02;22.60;99.90
51327;DHT22;37412;52.836;6.362;2023-08-12T16:19:53;22.60;99.90
51327;DHT22;37412;52.836;6.362;2023-08-12T16:22:39;22.60;99.90
51327;DHT22;37412;52.836;6.362;2023-08-12T16:25:26;22.50;99.90
51327;DHT22;37412;52.836;6.362;2023-08-12T16:28:12;22.50;99.90
51327;DHT22;37412;52.836;6.362;2023-08-12T16:30:58;22.50;99.90
51327;DHT22;37412;52.836;6.362;2023-08-12T16:33:44;22.50;99.90
51327;DHT22;37412;52.836;6.362;2023-08-12T16:36:30;22.50;99.90
51327;DHT22;37412;52.836;6.362;2023-08-12T16:39:15;22.40;99.90
51327;DHT22;37412;52.836;6.362;2023-08-12T16:42:01;22.30;99.90
51327;DHT22;37412;52.836;6.362;2023-08-12T16:44:47;22.30;99.90
51327;DHT22;37412;52.836;6.362;2023-08-12T16:47:33;22.20;99.90
51327;DHT22;37412;52.836;6.362;2023-08-12T16:50:19;22.20;99.90
51327;DHT22;37412;52.836;6.362;2023-08-12T16:53:05;22.10;99.90
51327;DHT22;37412;52.836;6.362;2023-08-12T16:55:51;22.10;99.90
51327;DHT22;37412;52.836;6.362;2023-08-12T16:58:37;22.10;99.90
51327;DHT22;37412;52.836;6.362;2023-08-12T17:01:25;22.00;99.90
51327;DHT22;37412;52.836;6.362;2023-08-12T17:04:11;22.00;99.90
51327;DHT22;37412;52.836;6.362;2023-08-12T17:06:57;22.00;99.90
51327;DHT22;37412;52.836;6.362;2023-08-12T17:09:43;21.90;99.90
51327;DHT22;37412;52.836;6.362;2023-08-12T17:12:29;21.90;99.90
51327;DHT22;37412;52.836;6.362;2023-08-12T17:15:15;21.80;99.90
51327;DHT22;37412;52.836;6.362;2023-08-12T17:18:02;21.70;99.90
51327;DHT22;37412;52.836;6.362;2023-08-12T17:20:48;21.70;99.90
51327;DHT22;37412;52.836;6.362;2023-08-12T17:23:34;21.70;99.90
51327;DHT22;37412;52.836;6.362;2023-08-12T17:26:20;21.60;99.90
51327;DHT22;37412;52.836;6.362;2023-08-12T17:29:06;21.60;99.90
51327;DHT22;37412;52.836;6.362;2023-08-12T17:31:52;21.50;99.90